createdAt,value
2023-06-02T07:49:11.907Z,478.13
2023-06-02T10:54:58.442Z,354.38
2023-06-02T10:55:58.392Z,354.38
2023-06-02T10:56:58.368Z,354.38
2023-06-02T10:57:58.361Z,354.38
2023-06-02T10:58:58.342Z,354.38
2023-06-02T10:59:58.316Z,360.00
2023-06-02T11:00:58.349Z,360.00
2023-06-02T11:01:58.282Z,360.00
2023-06-02T11:02:58.339Z,360.00
2023-06-02T11:03:58.286Z,360.00
2023-06-02T11:04:58.237Z,365.63
2023-06-02T11:05:58.235Z,365.63
2023-06-02T11:06:58.215Z,365.63
2023-06-02T11:07:58.201Z,371.25
2023-06-02T11:08:58.180Z,371.25
2023-06-02T11:09:58.173Z,371.25
2023-06-02T11:10:58.165Z,371.25
2023-06-02T11:11:58.132Z,371.25
2023-06-02T11:12:58.119Z,376.88
2023-06-02T11:13:58.186Z,382.50
2023-06-02T11:14:58.097Z,382.50
2023-06-02T11:15:58.117Z,382.50
2023-06-02T11:16:58.070Z,382.50
2023-06-02T11:17:58.067Z,382.50
2023-06-02T11:18:58.051Z,388.13
2023-06-02T11:19:58.051Z,388.13
2023-06-02T11:20:58.044Z,388.13
2023-06-02T11:21:58.089Z,388.13
2023-06-02T11:22:57.980Z,393.75
2023-06-02T11:23:57.998Z,393.75
2023-06-02T11:24:57.947Z,393.75
2023-06-02T11:25:57.932Z,393.75
2023-06-02T11:26:57.961Z,393.75
2023-06-02T11:27:57.929Z,393.75
2023-06-02T11:28:57.893Z,393.75
2023-06-02T11:29:57.891Z,393.75
2023-06-02T11:30:57.882Z,393.75
2023-06-02T11:31:57.854Z,399.38
2023-06-02T11:32:57.876Z,399.38
2023-06-02T11:33:57.814Z,399.38
2023-06-02T11:34:57.802Z,399.38
2023-06-02T11:35:57.816Z,399.38
2023-06-02T11:36:57.791Z,405.00
2023-06-02T11:37:57.759Z,405.00
2023-06-02T11:38:57.748Z,405.00
2023-06-02T11:39:57.727Z,405.00
2023-06-02T11:40:57.723Z,405.00
2023-06-02T11:41:57.724Z,405.00
2023-06-02T11:42:57.694Z,410.63
2023-06-02T11:43:57.725Z,410.63
2023-06-02T11:44:57.661Z,410.63
2023-06-02T11:45:57.658Z,410.63
2023-06-02T11:46:57.667Z,410.63
2023-06-02T11:47:57.634Z,416.25
2023-06-02T11:48:57.649Z,416.25
2023-06-02T11:49:57.602Z,416.25
2023-06-02T11:50:57.580Z,421.88
2023-06-02T11:51:57.656Z,421.88
2023-06-02T11:52:57.550Z,421.88
2023-06-02T11:53:57.537Z,427.50
2023-06-02T11:54:57.586Z,421.88
2023-06-02T11:55:57.646Z,421.88
2023-06-02T11:56:57.505Z,421.88
2023-06-02T11:57:57.476Z,421.88
2023-06-02T11:58:57.462Z,421.88
2023-06-02T11:59:57.447Z,421.88
2023-06-02T12:00:57.436Z,427.50
2023-06-02T12:01:57.501Z,433.13
2023-06-02T12:02:57.544Z,433.13
2023-06-02T12:03:57.508Z,433.13
2023-06-02T12:04:57.514Z,433.13
2023-06-02T12:05:57.487Z,438.75
2023-06-02T12:06:57.367Z,438.75
2023-06-02T12:07:57.371Z,438.75
2023-06-02T12:08:57.374Z,438.75
2023-06-02T12:09:57.328Z,438.75
2023-06-02T12:10:59.912Z,450.00
2023-06-02T12:11:57.292Z,444.38
2023-06-02T12:12:57.285Z,444.38
2023-06-02T12:13:57.254Z,444.38
2023-06-02T12:14:57.245Z,444.38
2023-06-02T12:15:57.228Z,450.00
2023-06-02T12:16:57.277Z,450.00
2023-06-02T12:17:57.232Z,450.00
2023-06-02T12:18:57.187Z,450.00
2023-06-02T12:19:57.170Z,450.00
2023-06-02T12:20:57.161Z,455.63
2023-06-02T12:21:57.232Z,450.00
2023-06-02T12:22:57.142Z,450.00
2023-06-02T12:23:57.129Z,455.63
2023-06-02T12:24:57.107Z,450.00
2023-06-02T12:25:57.097Z,461.25
2023-06-02T12:26:57.092Z,455.63
2023-06-02T12:27:57.064Z,455.63
2023-06-02T12:28:57.053Z,455.63
2023-06-02T12:29:57.040Z,455.63
2023-06-02T12:30:57.041Z,455.63
2023-06-02T12:31:57.009Z,461.25
2023-06-02T12:32:57.052Z,461.25
2023-06-02T12:33:56.986Z,461.25
2023-06-02T12:34:56.988Z,461.25
2023-06-02T12:35:56.960Z,466.88
2023-06-02T12:36:56.949Z,461.25
2023-06-02T12:37:56.968Z,461.25
2023-06-02T12:38:56.921Z,466.88
2023-06-02T12:39:56.921Z,466.88
2023-06-02T12:40:56.926Z,466.88
2023-06-02T12:41:56.885Z,466.88
2023-06-02T12:42:56.870Z,466.88
2023-06-02T12:43:56.866Z,472.50
2023-06-02T12:44:56.851Z,478.13
2023-06-02T12:45:56.826Z,478.13
2023-06-02T12:46:56.816Z,478.13
2023-06-02T12:47:56.829Z,478.13
2023-06-02T12:48:56.805Z,478.13
2023-06-02T12:49:56.779Z,489.38
2023-06-02T12:50:56.778Z,489.38
2023-06-02T12:51:56.795Z,495.00
2023-06-02T12:52:56.745Z,489.38
2023-06-02T12:53:56.747Z,489.38
2023-06-02T12:54:56.723Z,495.00
2023-06-02T12:55:56.704Z,500.63
2023-06-02T12:56:56.703Z,517.50
2023-06-02T12:57:56.710Z,534.38
2023-06-02T12:58:56.732Z,573.75
2023-06-02T12:59:56.677Z,630.00
2023-06-02T13:00:56.653Z,691.88
2023-06-02T13:01:56.684Z,787.50
2023-06-02T13:02:56.770Z,1333.13
2023-06-02T13:04:56.619Z,2874.38
2023-06-02T13:05:56.649Z,2953.13
2023-06-02T13:06:56.589Z,3093.75
2023-06-02T13:07:56.576Z,3105.00
2023-06-02T13:08:56.562Z,2986.88
2023-06-02T13:09:56.549Z,3031.88
2023-06-02T13:10:56.552Z,3043.13
2023-06-02T13:11:56.525Z,3268.13
2023-06-02T13:12:56.520Z,3341.25
2023-06-02T13:13:56.526Z,3228.75
2023-06-02T13:14:56.493Z,3240.00
2023-06-02T13:15:56.575Z,3335.63
2023-06-02T13:16:56.506Z,3335.63
2023-06-02T13:17:56.468Z,3200.63
2023-06-02T13:18:56.456Z,3245.63
2023-06-02T13:19:56.438Z,3223.13
2023-06-02T13:20:56.454Z,3178.13
2023-06-02T13:21:56.444Z,3217.50
2023-06-02T13:22:56.410Z,3380.63
2023-06-02T13:23:56.408Z,3498.75
2023-06-02T13:24:56.476Z,3346.88
2023-06-02T13:25:56.461Z,3009.38
2023-06-02T13:26:56.382Z,2891.25
2023-06-02T13:27:56.363Z,2722.50
2023-06-02T13:28:56.381Z,2615.63
2023-06-02T13:29:56.343Z,2503.13
2023-06-02T13:30:56.333Z,2356.88
2023-06-02T13:31:56.372Z,2306.25
2023-06-02T13:32:56.336Z,2289.38
2023-06-02T13:33:56.303Z,2233.13
2023-06-02T13:34:56.313Z,2165.63
2023-06-02T13:35:56.291Z,2154.38
2023-06-02T13:36:56.285Z,2154.38
2023-06-02T13:37:56.284Z,2075.63
2023-06-02T13:38:56.284Z,2064.38
2023-06-02T13:39:56.252Z,2126.25
2023-06-02T13:40:56.248Z,2193.75
2023-06-02T13:41:56.247Z,2182.50
2023-06-02T13:42:56.277Z,2143.13
2023-06-02T13:43:56.215Z,2120.63
2023-06-02T13:44:56.213Z,2171.25
2023-06-02T13:45:56.245Z,2250.00
2023-06-02T13:46:56.215Z,2311.88
2023-06-02T13:47:56.245Z,2306.25
2023-06-02T13:48:56.198Z,2323.13
2023-06-02T13:49:56.167Z,2413.13
2023-06-02T13:50:56.163Z,2486.25
2023-06-02T13:51:56.151Z,2520.00
2023-06-02T13:52:56.148Z,2688.75
2023-06-02T13:53:56.146Z,3060.00
2023-06-02T13:54:56.129Z,3346.88
2023-06-02T13:55:56.119Z,3256.88
2023-06-02T13:56:56.115Z,3003.75
2023-06-02T13:57:56.107Z,3093.75
2023-06-02T13:58:56.119Z,3043.13
2023-06-02T13:59:56.099Z,3026.25
2023-06-02T14:00:56.178Z,3060.00
2023-06-02T14:01:56.123Z,3099.38
2023-06-02T14:02:56.166Z,3105.00
2023-06-02T14:03:56.169Z,2953.13
2023-06-02T14:04:56.078Z,2835.00
2023-06-02T14:05:56.051Z,2896.88
2023-06-02T14:06:56.054Z,2930.63
2023-06-02T14:07:56.042Z,2919.38
2023-06-02T14:08:56.042Z,2964.38
2023-06-02T14:09:56.076Z,3020.63
2023-06-02T14:10:56.021Z,3003.75
2023-06-02T14:11:56.017Z,2981.25
2023-06-02T14:12:56.013Z,3088.13
2023-06-02T14:13:56.007Z,3144.38
2023-06-02T14:14:56.001Z,3009.38
2023-06-02T14:15:56.040Z,2986.88
2023-06-02T14:16:56.020Z,3161.25
2023-06-02T14:17:56.023Z,3245.63
2023-06-02T14:18:55.978Z,3234.38
2023-06-02T14:19:55.994Z,3183.75
2023-06-02T14:20:55.970Z,3082.50
2023-06-02T14:21:55.987Z,2981.25
2023-06-02T14:22:55.965Z,2880.00
2023-06-02T14:23:55.946Z,2857.50
2023-06-02T14:24:55.947Z,2891.25
2023-06-02T14:25:55.953Z,2896.88
2023-06-02T14:26:55.959Z,2930.63
2023-06-02T14:27:55.939Z,2970.00
2023-06-02T14:28:55.920Z,2947.50
2023-06-02T14:29:55.964Z,2919.38
2023-06-02T14:30:56.025Z,2964.38
2023-06-02T14:31:56.022Z,3093.75
2023-06-02T14:32:55.940Z,3138.75
2023-06-02T14:33:55.890Z,3133.13
2023-06-02T14:34:55.892Z,3127.50
2023-06-02T14:35:55.881Z,2958.75
2023-06-02T14:36:55.896Z,2930.63
2023-06-02T14:37:55.886Z,2941.88
2023-06-02T14:38:55.897Z,2925.00
2023-06-02T14:39:55.863Z,2964.38
2023-06-02T14:40:55.863Z,3093.75
2023-06-02T14:41:55.882Z,3183.75
2023-06-02T14:42:55.846Z,3318.75
2023-06-02T14:43:55.837Z,3459.38
2023-06-02T14:44:55.838Z,3358.13
2023-06-02T14:45:55.828Z,3330.00
2023-06-02T14:46:55.959Z,3403.13
2023-06-02T14:47:55.844Z,3318.75
2023-06-02T14:48:55.816Z,3375.00
2023-06-02T14:49:55.807Z,3442.50
2023-06-02T14:50:55.808Z,3352.50
2023-06-02T14:51:55.801Z,3279.38
2023-06-02T14:52:55.811Z,3408.75
2023-06-02T14:53:56.158Z,3425.63
2023-06-02T14:54:55.860Z,3358.13
2023-06-02T14:55:55.985Z,3420.00
2023-06-02T14:56:55.809Z,3453.75
2023-06-02T14:57:55.787Z,3341.25
2023-06-02T14:59:06.738Z,3375.00
2023-06-02T14:59:55.782Z,3369.38
2023-06-02T15:00:55.797Z,3352.50
2023-06-02T15:01:55.790Z,3380.63
2023-06-02T15:02:55.829Z,3391.88
2023-06-02T15:03:55.873Z,3313.13
2023-06-02T15:04:55.791Z,3228.75
2023-06-02T15:05:55.742Z,3301.88
2023-06-02T15:06:55.746Z,3245.63
2023-06-02T15:07:55.733Z,3144.38
2023-06-02T15:08:55.739Z,3127.50
2023-06-02T15:09:55.738Z,3026.25
2023-06-02T15:10:55.752Z,2908.13
2023-06-02T15:11:55.722Z,2835.00
2023-06-02T15:12:55.717Z,2930.63
2023-06-02T15:13:55.768Z,2908.13
2023-06-02T15:14:55.747Z,2930.63
2023-06-02T15:15:55.707Z,3026.25
2023-06-02T15:16:55.738Z,3065.63
2023-06-02T15:17:55.737Z,2953.13
2023-06-02T15:18:57.113Z,2885.63
2023-06-02T15:19:55.737Z,2964.38
2023-06-02T15:20:55.746Z,3003.75
2023-06-02T15:21:55.738Z,2953.13
2023-06-02T15:22:55.678Z,2970.00
2023-06-02T15:23:55.680Z,2902.50
2023-06-02T15:24:55.674Z,2896.88
2023-06-02T15:25:55.673Z,2958.75
2023-06-02T15:26:55.702Z,2970.00
2023-06-02T15:27:55.672Z,2835.00
2023-06-02T15:28:55.723Z,2818.13
2023-06-02T15:29:55.690Z,2857.50
2023-06-02T15:30:55.665Z,2874.38
2023-06-02T15:31:55.700Z,2857.50
2023-06-02T15:32:55.666Z,2829.38
2023-06-02T15:33:55.649Z,2756.25
2023-06-02T15:34:55.670Z,2711.25
2023-06-02T15:35:55.695Z,2778.75
2023-06-02T15:36:55.661Z,2688.75
2023-06-02T15:37:55.652Z,2711.25
2023-06-02T15:38:55.632Z,2604.38
2023-06-02T15:39:55.626Z,2576.25
2023-06-02T15:40:55.624Z,1996.88
2023-06-02T15:42:53.884Z,2666.25
2023-06-02T15:43:53.877Z,2773.13
2023-06-02T15:44:53.933Z,2767.50
2023-06-02T15:45:53.868Z,2700.00
2023-06-02T15:46:53.899Z,2660.63
2023-06-02T15:47:53.925Z,2638.13
2023-06-02T15:48:53.880Z,2615.63
2023-06-02T15:49:53.876Z,2694.38
2023-06-02T15:50:53.842Z,2722.50
2023-06-02T15:51:53.880Z,2666.25
2023-06-02T15:52:53.849Z,2711.25
2023-06-02T15:53:53.845Z,2705.63
2023-06-02T15:54:53.843Z,2705.63
2023-06-02T15:55:53.838Z,2745.00
2023-06-02T15:56:53.852Z,2761.88
2023-06-02T15:57:53.824Z,2761.88
2023-06-02T15:58:53.835Z,2745.00
2023-06-02T15:59:53.831Z,2728.13
2023-06-02T16:00:53.798Z,2694.38
2023-06-02T16:01:53.850Z,2733.75
2023-06-02T16:04:08.424Z,2536.88
2023-06-02T16:05:08.403Z,2396.25
2023-06-02T16:06:08.390Z,1653.75
2023-06-02T16:07:53.080Z,2576.25
2023-06-02T16:08:53.052Z,2542.50
2023-06-02T16:09:53.006Z,2508.75
2023-06-02T16:10:53.008Z,2452.50
2023-06-02T16:11:53.000Z,1980.00
2023-06-02T16:20:17.882Z,1597.50
2023-06-02T16:21:17.867Z,2508.75
2023-06-02T16:22:17.921Z,2486.25
2023-06-02T16:23:17.852Z,2362.50
2023-06-02T16:24:17.868Z,1546.88
2023-06-02T16:25:18.005Z,2154.38
2023-06-02T16:26:17.985Z,2081.25
2023-06-02T16:27:17.831Z,1563.75
2023-06-02T16:28:39.659Z,1923.75
2023-06-02T16:29:39.671Z,1192.50
2023-06-02T16:30:39.678Z,2441.25
2023-06-02T16:31:39.662Z,1271.25
2023-06-02T16:32:39.644Z,2385.00
2023-06-02T16:33:39.643Z,1035.00
2023-06-02T16:34:43.678Z,1136.25
2023-06-02T16:35:43.644Z,1586.25
2023-06-02T16:52:40.989Z,1558.13
2023-06-02T16:57:02.130Z,1929.38
2023-06-02T17:01:03.744Z,1771.88
2023-06-02T17:02:03.394Z,1743.75
2023-06-02T17:03:03.403Z,2070.00
2023-06-02T17:04:03.404Z,2058.75
2023-06-02T17:05:03.353Z,1974.38
2023-06-02T17:06:03.382Z,1608.75
2023-06-02T17:08:34.911Z,1816.88
2023-06-02T17:09:34.875Z,1783.13
2023-06-02T17:10:34.855Z,1771.88
2023-06-02T17:11:34.852Z,1755.00
2023-06-02T17:12:34.845Z,1698.75
2023-06-02T17:13:34.844Z,1676.25
2023-06-02T17:14:34.839Z,1575.00
2023-06-02T17:15:34.850Z,1569.38
2023-06-02T17:16:34.867Z,1451.25
2023-06-02T17:17:34.832Z,1485.00
2023-06-02T17:18:34.805Z,1400.63
2023-06-02T17:19:34.803Z,1108.13
2023-06-02T17:20:34.786Z,1361.25
2023-06-02T17:21:34.842Z,928.13
2023-06-02T17:23:17.708Z,686.25
2023-06-02T17:24:17.706Z,579.38
